Time;durP1;ratioP1;P1;durP2;ratioP2;P2;SDS_P1;SDS_P2;PMS_P1;PMS_P2;Temp;Humidity;BMP_temperature;BMP_pressure;BME280_temperature;BME280_humidity;BME280_pressure;Samples;Min_cycle;Max_cycle;Signal;HPM_P1;HPM_P2
2021/05/06 00:30:13;;;;;;;29.52;15.55;;;4.00;99.90;;;;;;5073036;28;20085;-78
2021/05/06 00:32:42;;;;;;;23.13;13.45;;;3.90;99.90;;;;;;5071490;28;20094;-77
2021/05/06 00:35:08;;;;;;;24.10;14.32;;;3.90;99.90;;;;;;5072418;28;20020;-77
2021/05/06 00:37:43;;;;;;;28.65;13.70;;;3.90;99.90;;;;;;5071321;28;20024;-77
2021/05/06 00:40:12;;;;;;;19.02;12.10;;;3.90;99.90;;;;;;5072674;28;20103;-78
2021/05/06 00:43:07;;;;;;;21.25;11.85;;;3.90;99.90;;;;;;5072384;28;20055;-78
2021/05/06 00:46:12;;;;;;;16.48;11.20;;;3.90;99.90;;;;;;5072575;28;20119;-77
2021/05/06 00:56:54;;;;;;;18.00;10.32;;;3.90;99.90;;;;;;5070831;28;20490;-78
2021/05/06 01:07:28;;;;;;;15.70;9.45;;;3.80;99.90;;;;;;5072634;28;20097;-77
2021/05/06 01:12:22;;;;;;;14.80;7.68;;;3.60;99.90;;;;;;5072590;28;20033;-77
2021/05/06 01:14:48;;;;;;;19.50;8.55;;;3.70;99.90;;;;;;5072293;28;20023;-77
2021/05/06 01:17:13;;;;;;;17.30;8.57;;;3.60;99.90;;;;;;5072007;28;20051;-77
2021/05/06 01:19:39;;;;;;;10.35;7.35;;;3.60;99.90;;;;;;5072241;28;20024;-77
2021/05/06 01:22:05;;;;;;;13.30;8.48;;;3.60;99.90;;;;;;5072076;28;20078;-77
2021/05/06 01:24:33;;;;;;;16.85;8.98;;;3.50;99.90;;;;;;5072141;28;20029;-77
2021/05/06 01:29:34;;;;;;;21.38;9.02;;;3.50;99.90;;;;;;5072548;28;20029;-77
2021/05/06 01:34:26;;;;;;;21.52;10.10;;;3.40;99.90;;;;;;5072102;28;20051;-77
2021/05/06 01:36:59;;;;;;;19.42;10.30;;;3.50;99.90;;;;;;5071807;28;20386;-77
2021/05/06 01:47:23;;;;;;;17.60;10.85;;;3.30;99.90;;;;;;5075563;28;20581;-78
2021/05/06 01:58:09;;;;;;;19.02;9.90;;;3.10;99.90;;;;;;5075428;28;20039;-77
2021/05/06 02:00:41;;;;;;;18.15;10.70;;;3.10;99.90;;;;;;5075180;28;20024;-77
2021/05/06 02:03:07;;;;;;;17.90;9.73;;;3.10;99.90;;;;;;5075378;28;20020;-77
2021/05/06 02:05:32;;;;;;;15.80;9.52;;;3.00;99.90;;;;;;5075800;28;20094;-77
2021/05/06 02:07:58;;;;;;;14.15;9.15;;;3.00;99.90;;;;;;5075090;28;20037;-77
2021/05/06 02:10:26;;;;;;;17.13;9.45;;;3.00;99.90;;;;;;5073795;28;20078;-77
2021/05/06 02:12:52;;;;;;;18.00;9.98;;;2.90;99.90;;;;;;5075049;28;20028;-77
2021/05/06 02:15:23;;;;;;;18.10;8.73;;;2.90;99.90;;;;;;5075096;28;20020;-76
2021/05/06 02:17:49;;;;;;;26.70;11.15;;;2.80;99.90;;;;;;5073733;28;20390;-77
2021/05/06 02:20:16;;;;;;;26.05;13.05;;;2.80;99.90;;;;;;5073497;28;20082;-77
2021/05/06 02:22:46;;;;;;;22.25;11.60;;;2.70;99.90;;;;;;5075111;28;20024;-77
2021/05/06 02:25:12;;;;;;;22.00;10.27;;;2.70;99.90;;;;;;5075028;28;20054;-77
2021/05/06 02:27:37;;;;;;;14.85;8.07;;;2.60;99.90;;;;;;5074838;28;20073;-76
2021/05/06 02:30:04;;;;;;;18.45;8.52;;;2.50;99.90;;;;;;5073672;28;20028;-76
2021/05/06 02:32:30;;;;;;;15.57;8.65;;;2.50;99.90;;;;;;5073425;28;20034;-77
2021/05/06 02:34:57;;;;;;;16.08;9.75;;;2.40;99.90;;;;;;5073480;28;20016;-77
2021/05/06 02:37:23;;;;;;;9.95;7.72;;;2.40;99.90;;;;;;5073154;28;20040;-77
2021/05/06 02:39:48;;;;;;;14.80;7.93;;;2.30;99.90;;;;;;5074836;28;20033;-77
2021/05/06 02:42:14;;;;;;;13.73;8.00;;;2.30;99.90;;;;;;5074534;28;20532;-77
2021/05/06 02:44:41;;;;;;;11.48;8.05;;;2.20;99.90;;;;;;5074528;28;20386;-77
2021/05/06 02:47:07;;;;;;;11.80;7.80;;;2.20;99.90;;;;;;5094522;28;20028;-77
2021/05/06 02:49:33;;;;;;;11.30;6.78;;;2.20;99.90;;;;;;5094545;28;20031;-77
2021/05/06 02:52:22;;;;;;;14.35;7.75;;;2.20;99.90;;;;;;5094524;28;20012;-77
2021/05/06 02:54:54;;;;;;;14.70;7.72;;;2.20;99.90;;;;;;5093192;28;20501;-77
2021/05/06 03:02:56;;;;;;;29.15;13.68;;;2.10;99.90;;;;;;5094636;28;20558;-77
2021/05/06 03:05:25;;;;;;;56.15;26.27;;;2.10;99.90;;;;;;5093077;28;20066;-76
2021/05/06 03:07:59;;;;;;;82.20;33.63;;;2.00;99.90;;;;;;5092747;28;20085;-77
2021/05/06 03:10:38;;;;;;;45.20;22.42;;;2.00;99.90;;;;;;5094310;28;20442;-77
2021/05/06 03:23:49;;;;;;;10.13;7.28;;;1.80;99.90;;;;;;5094198;28;20035;-77
2021/05/06 03:26:16;;;;;;;10.95;6.47;;;1.80;99.90;;;;;;5076244;28;20075;-77
2021/05/06 03:28:55;;;;;;;11.95;6.68;;;1.80;99.90;;;;;;5072227;28;20029;-77
2021/05/06 03:31:46;;;;;;;13.05;6.88;;;1.80;99.90;;;;;;5073602;28;20103;-77
2021/05/06 03:42:49;;;;;;;11.30;6.53;;;1.80;99.90;;;;;;5073750;28;20533;-77
2021/05/06 04:35:50;;;;;;;10.00;5.78;;;4.20;99.90;;;;;;5052546;28;20548;-78
2021/05/06 04:38:18;;;;;;;11.60;6.13;;;4.20;99.90;;;;;;5051118;28;20021;-78
2021/05/06 04:46:46;;;;;;;14.38;7.80;;;4.40;99.90;;;;;;5046815;28;20040;-78
2021/05/06 04:55:02;;;;;;;10.52;7.32;;;4.70;99.90;;;;;;5059786;28;20039;-77
2021/05/06 05:05:28;;;;;;;12.18;8.73;;;4.80;98.80;;;;;;5071845;28;20082;-78
2021/05/06 05:08:00;;;;;;;11.60;7.80;;;4.80;97.50;;;;;;5070017;28;20052;-78
2021/05/06 05:23:53;;;;;;;12.98;7.38;;;5.60;97.80;;;;;;5075978;28;20482;-77
2021/05/06 05:26:19;;;;;;;13.82;7.97;;;5.60;92.70;;;;;;5075553;28;20507;-77
2021/05/06 05:28:44;;;;;;;14.38;7.82;;;5.70;92.80;;;;;;5072397;28;20024;-76
2021/05/06 05:31:10;;;;;;;13.27;8.20;;;5.70;88.80;;;;;;5073608;28;20470;-77
2021/05/06 05:36:25;;;;;;;12.20;8.77;;;6.00;88.80;;;;;;5062019;28;20032;-76
2021/05/06 05:39:03;;;;;;;11.25;7.50;;;6.10;89.20;;;;;;5073028;28;20432;-76
2021/05/06 05:44:49;;;;;;;8.43;5.93;;;6.30;87.40;;;;;;5075124;28;20075;-76
2021/05/06 05:55:08;;;;;;;11.30;5.50;;;6.70;80.40;;;;;;5075515;28;20032;-77
2021/05/06 05:57:33;;;;;;;9.63;5.30;;;6.80;79.90;;;;;;5075246;28;20531;-77
2021/05/06 05:59:59;;;;;;;11.38;5.18;;;6.90;78.90;;;;;;5069628;28;20115;-77
2021/05/06 06:02:24;;;;;;;9.52;5.13;;;7.00;77.40;;;;;;5074592;28;20106;-77
2021/05/06 06:04:50;;;;;;;8.70;4.70;;;7.10;75.60;;;;;;5074544;28;20517;-77
2021/05/06 06:07:16;;;;;;;8.70;5.35;;;7.10;72.70;;;;;;5074310;28;20035;-77
2021/05/06 06:09:42;;;;;;;8.30;4.63;;;7.30;75.90;;;;;;5074727;28;20021;-77
2021/05/06 06:12:08;;;;;;;7.97;4.85;;;7.40;76.20;;;;;;5074479;28;20386;-77
2021/05/06 06:17:14;;;;;;;4.47;3.80;;;7.60;70.60;;;;;;5074595;28;20032;-77
2021/05/06 06:19:46;;;;;;;5.03;3.25;;;7.60;68.20;;;;;;5074498;28;20103;-77
2021/05/06 06:22:14;;;;;;;6.78;3.80;;;7.70;70.30;;;;;;5073243;28;20028;-77
2021/05/06 06:24:40;;;;;;;4.97;2.85;;;7.90;71.10;;;;;;5070691;28;20020;-78
2021/05/06 06:27:06;;;;;;;4.03;3.15;;;8.10;69.10;;;;;;5073237;28;20059;-78
2021/05/06 06:29:34;;;;;;;5.50;3.45;;;8.20;68.50;;;;;;5071617;28;20043;-77
2021/05/06 06:32:01;;;;;;;3.10;2.60;;;8.40;68.50;;;;;;5074413;28;20020;-77
2021/05/06 06:34:27;;;;;;;5.18;3.38;;;8.50;68.00;;;;;;5072390;28;20532;-78
2021/05/06 06:36:53;;;;;;;4.47;2.97;;;8.70;68.10;;;;;;5071554;28;20025;-77
2021/05/06 06:39:18;;;;;;;4.28;3.28;;;8.60;67.10;;;;;;5074081;28;20048;-77
2021/05/06 06:41:45;;;;;;;7.43;3.97;;;8.70;65.20;;;;;;5070766;28;20033;-77
2021/05/06 06:44:13;;;;;;;7.38;3.60;;;8.70;63.50;;;;;;5070259;28;20433;-77
2021/05/06 06:46:39;;;;;;;5.32;3.53;;;8.40;63.40;;;;;;5066618;28;20528;-77
2021/05/06 06:49:05;;;;;;;6.97;2.92;;;8.40;64.80;;;;;;5063486;28;20021;-78
2021/05/06 06:51:31;;;;;;;3.78;3.42;;;8.30;66.40;;;;;;5058275;28;20021;-78
2021/05/06 06:53:56;;;;;;;4.82;3.30;;;8.30;67.20;;;;;;5058427;28;20049;-78
2021/05/06 06:56:22;;;;;;;5.43;3.65;;;8.20;68.50;;;;;;5071620;28;20108;-78
2021/05/06 06:58:50;;;;;;;5.63;3.00;;;8.40;66.90;;;;;;5066590;28;20033;-78
2021/05/06 07:01:17;;;;;;;4.95;3.20;;;8.50;65.50;;;;;;5071058;28;20055;-78
2021/05/06 07:03:43;;;;;;;7.50;4.13;;;8.70;64.20;;;;;;5072057;28;20032;-78
2021/05/06 07:06:09;;;;;;;3.03;2.38;;;9.00;65.50;;;;;;5070988;28;20012;-78
2021/05/06 07:08:37;;;;;;;3.22;2.92;;;9.10;62.50;;;;;;5071841;28;20020;-78
2021/05/06 07:11:04;;;;;;;5.85;3.22;;;9.20;62.90;;;;;;5072482;28;20127;-79
2021/05/06 07:13:31;;;;;;;6.38;3.38;;;9.40;64.20;;;;;;5072557;28;20028;-78
2021/05/06 07:16:01;;;;;;;3.20;2.83;;;9.50;62.60;;;;;;5073917;28;20025;-78
2021/05/06 07:18:27;;;;;;;5.22;2.58;;;9.40;58.20;;;;;;5064918;28;20086;-78
2021/05/06 07:20:54;;;;;;;4.20;2.65;;;9.40;58.80;;;;;;5072395;28;20503;-78
2021/05/06 07:23:21;;;;;;;3.65;2.55;;;9.30;61.40;;;;;;5073681;28;20025;-78
2021/05/06 07:25:49;;;;;;;4.22;3.25;;;9.10;61.60;;;;;;5073267;28;20386;-79
2021/05/06 07:28:16;;;;;;;4.82;2.67;;;9.10;59.80;;;;;;5072298;28;20040;-78
2021/05/06 07:30:43;;;;;;;2.65;2.45;;;9.30;61.50;;;;;;5073446;28;20017;-78
2021/05/06 07:33:10;;;;;;;3.88;2.55;;;9.10;59.00;;;;;;5068773;28;20023;-78
2021/05/06 07:35:36;;;;;;;10.27;4.90;;;9.20;58.70;;;;;;5071788;28;20029;-78
2021/05/06 07:38:02;;;;;;;8.02;3.65;;;9.30;61.90;;;;;;5071205;28;20027;-78
2021/05/06 07:40:27;;;;;;;3.00;2.60;;;9.30;60.90;;;;;;5070725;28;20547;-78
2021/05/06 07:42:53;;;;;;;3.63;2.60;;;9.10;60.50;;;;;;5072609;28;20024;-78
2021/05/06 07:45:20;;;;;;;3.92;2.70;;;8.90;59.50;;;;;;5069916;28;20016;-78
2021/05/06 07:47:45;;;;;;;4.72;3.00;;;8.90;59.80;;;;;;5072635;28;20062;-78
2021/05/06 07:50:12;;;;;;;3.60;1.98;;;8.90;60.10;;;;;;5071303;28;20024;-78
2021/05/06 07:52:40;;;;;;;3.38;2.55;;;9.30;60.20;;;;;;5072670;28;20432;-78
2021/05/06 07:55:07;;;;;;;7.80;4.13;;;9.70;61.00;;;;;;5070005;28;20379;-78
2021/05/06 07:57:32;;;;;;;9.50;4.55;;;10.20;61.20;;;;;;5071681;28;20073;-75
2021/05/06 07:59:58;;;;;;;3.47;2.80;;;10.40;59.00;;;;;;5073052;28;20028;-75
2021/05/06 08:02:24;;;;;;;5.32;2.65;;;10.30;56.80;;;;;;5072888;28;20466;-75
2021/05/06 08:04:50;;;;;;;6.22;2.85;;;10.30;56.60;;;;;;5071733;28;20075;-76
2021/05/06 08:07:16;;;;;;;3.53;2.25;;;10.30;56.90;;;;;;5071353;28;20497;-76
2021/05/06 08:09:41;;;;;;;2.88;2.25;;;10.50;56.40;;;;;;5071718;28;20527;-76
2021/05/06 08:12:07;;;;;;;12.30;5.85;;;10.30;55.90;;;;;;5072917;28;20044;-76
2021/05/06 08:14:33;;;;;;;6.20;3.38;;;10.20;54.50;;;;;;5072842;28;20020;-76
2021/05/06 08:16:59;;;;;;;6.45;2.53;;;10.40;54.70;;;;;;5072866;28;20032;-76
2021/05/06 08:19:25;;;;;;;2.83;2.60;;;10.80;54.30;;;;;;5071541;28;20032;-76
2021/05/06 08:21:50;;;;;;;4.03;2.65;;;10.90;52.70;;;;;;5072839;28;20032;-76
2021/05/06 08:24:16;;;;;;;3.58;2.50;;;11.30;52.20;;;;;;5071235;28;20024;-76
2021/05/06 08:26:42;;;;;;;5.50;2.20;;;11.50;52.50;;;;;;5071267;28;20486;-75
2021/05/06 08:29:08;;;;;;;3.70;2.88;;;11.50;52.70;;;;;;5072603;28;20017;-76
2021/05/06 08:31:34;;;;;;;2.25;2.03;;;11.60;51.20;;;;;;5072736;28;20052;-76
2021/05/06 08:33:59;;;;;;;4.13;2.50;;;11.80;51.10;;;;;;5072636;28;20024;-76
2021/05/06 08:36:25;;;;;;;3.22;2.13;;;11.70;50.90;;;;;;5072668;28;20051;-76
2021/05/06 08:38:52;;;;;;;3.90;2.47;;;11.50;50.20;;;;;;5072560;28;20451;-76
2021/05/06 08:41:19;;;;;;;3.85;2.08;;;11.40;48.40;;;;;;5072594;28;20517;-76
2021/05/06 08:43:52;;;;;;;9.55;4.20;;;11.40;50.20;;;;;;5072600;28;20032;-76
2021/05/06 08:46:18;;;;;;;3.22;2.80;;;11.60;50.40;;;;;;5072299;28;20021;-76
2021/05/06 08:48:46;;;;;;;4.32;2.00;;;11.30;49.00;;;;;;5072611;28;20111;-76
2021/05/06 08:51:14;;;;;;;4.30;2.30;;;11.50;49.70;;;;;;5072775;28;20028;-76
2021/05/06 08:53:41;;;;;;;4.95;2.78;;;11.50;49.30;;;;;;5076603;28;20016;-76
2021/05/06 08:56:07;;;;;;;4.05;2.67;;;11.70;48.80;;;;;;5076484;28;20474;-76
2021/05/06 08:58:33;;;;;;;2.40;2.13;;;11.90;49.10;;;;;;5076338;28;20082;-76
2021/05/06 09:00:58;;;;;;;2.78;2.15;;;11.90;48.60;;;;;;5076653;28;20109;-76
2021/05/06 09:03:24;;;;;;;2.80;2.25;;;11.80;47.90;;;;;;5076569;28;20035;-76
2021/05/06 09:06:13;;;;;;;3.80;2.35;;;11.80;48.10;;;;;;5075419;28;20478;-76
2021/05/06 09:08:46;;;;;;;3.17;2.20;;;11.80;47.90;;;;;;5075197;28;20127;-76
2021/05/06 09:11:13;;;;;;;4.93;1.83;;;11.90;48.70;;;;;;5076544;28;20025;-75
2021/05/06 09:13:39;;;;;;;5.15;2.53;;;12.30;49.60;;;;;;5076250;28;20021;-76
2021/05/06 09:16:05;;;;;;;4.95;3.75;;;12.20;46.90;;;;;;5076399;28;20019;-76
2021/05/06 09:18:46;;;;;;;3.55;2.70;;;12.50;49.90;;;;;;5074854;28;20056;-76
2021/05/06 09:21:32;;;;;;;3.38;2.33;;;12.40;47.60;;;;;;5075109;28;20127;-76
2021/05/06 09:24:27;;;;;;;5.28;2.53;;;12.20;47.50;;;;;;5075661;28;20070;-75
2021/05/06 09:26:58;;;;;;;3.03;2.72;;;11.90;48.00;;;;;;5075853;28;20124;-75
2021/05/06 09:29:35;;;;;;;3.33;2.17;;;11.80;48.20;;;;;;5076004;28;20020;-76
2021/05/06 09:32:18;;;;;;;1.52;1.42;;;11.70;47.90;;;;;;5074491;28;20356;-76
2021/05/06 09:34:45;;;;;;;3.10;2.10;;;11.80;47.50;;;;;;5076013;28;20075;-76
2021/05/06 09:37:41;;;;;;;2.80;2.45;;;11.90;47.00;;;;;;5075608;28;20025;-76
2021/05/06 09:40:08;;;;;;;2.15;1.85;;;12.20;48.90;;;;;;5063288;28;20382;-76
2021/05/06 09:42:47;;;;;;;3.47;1.90;;;12.00;48.40;;;;;;5075260;28;20025;-76
2021/05/06 09:45:24;;;;;;;1.98;1.60;;;11.60;47.60;;;;;;5075456;28;20059;-76
2021/05/06 09:48:09;;;;;;;4.45;1.77;;;11.20;46.60;;;;;;5074509;28;20432;-76
2021/05/06 09:50:39;;;;;;;3.17;2.00;;;11.20;48.50;;;;;;5073694;28;20445;-76
2021/05/06 09:53:20;;;;;;;4.78;1.75;;;11.00;48.10;;;;;;5072079;28;20021;-76
2021/05/06 09:55:47;;;;;;;3.00;2.15;;;11.10;49.30;;;;;;5074076;28;20028;-76
2021/05/06 09:58:20;;;;;;;3.05;1.60;;;11.20;50.20;;;;;;5074881;28;20028;-76
2021/05/06 10:00:48;;;;;;;2.35;1.83;;;11.80;51.40;;;;;;5056456;28;20033;-76
2021/05/06 10:03:30;;;;;;;4.95;2.38;;;12.30;50.50;;;;;;5053752;28;20052;-76
2021/05/06 10:05:56;;;;;;;4.32;1.80;;;12.70;50.40;;;;;;5053758;28;20033;-76
2021/05/06 10:08:36;;;;;;;3.28;1.90;;;12.90;47.70;;;;;;5055076;28;20045;-76
2021/05/06 10:11:10;;;;;;;3.10;2.15;;;12.90;47.70;;;;;;5055476;28;20029;-76
2021/05/06 10:13:39;;;;;;;8.55;1.50;;;13.10;47.60;;;;;;5053712;28;20379;-76
2021/05/06 10:16:06;;;;;;;2.25;1.70;;;13.30;47.30;;;;;;5054487;28;20025;-76
2021/05/06 10:18:32;;;;;;;1.92;1.70;;;13.10;44.70;;;;;;5053263;28;20383;-76
2021/05/06 10:20:59;;;;;;;5.05;1.73;;;12.90;44.30;;;;;;5053825;28;20025;-76
2021/05/06 10:23:26;;;;;;;2.70;1.90;;;12.70;44.40;;;;;;5054955;28;20029;-76
2021/05/06 10:25:55;;;;;;;1.80;1.70;;;12.60;44.30;;;;;;5054939;28;20100;-76
2021/05/06 10:28:23;;;;;;;2.13;1.58;;;12.70;44.10;;;;;;5054669;28;20441;-76
2021/05/06 10:30:49;;;;;;;4.93;2.22;;;12.60;43.80;;;;;;5054485;28;20021;-76
2021/05/06 10:33:19;;;;;;;2.28;1.40;;;12.80;44.70;;;;;;5051383;28;20025;-76
2021/05/06 10:35:44;;;;;;;1.88;1.77;;;12.80;44.80;;;;;;5051702;28;20021;-76
2021/05/06 10:38:10;;;;;;;2.35;1.55;;;12.60;44.20;;;;;;5052936;28;20386;-76
2021/05/06 10:40:38;;;;;;;3.42;2.10;;;12.30;42.80;;;;;;5053509;28;20025;-76
2021/05/06 10:43:31;;;;;;;5.35;2.80;;;11.70;43.00;;;;;;5054286;28;20053;-76
2021/05/06 10:45:56;;;;;;;2.20;1.48;;;12.00;44.40;;;;;;5050070;28;20095;-76
2021/05/06 10:48:22;;;;;;;2.47;1.50;;;12.00;44.30;;;;;;5054469;28;20040;-76
2021/05/06 10:50:50;;;;;;;3.67;1.65;;;12.00;45.20;;;;;;5054719;28;20096;-76
2021/05/06 10:53:28;;;;;;;2.38;1.80;;;12.10;46.50;;;;;;5054370;28;20115;-76
2021/05/06 10:56:00;;;;;;;6.30;3.53;;;12.40;48.20;;;;;;5054686;28;20064;-76
2021/05/06 10:58:27;;;;;;;4.32;2.10;;;12.70;50.90;;;;;;5054010;28;20066;-76
2021/05/06 11:01:08;;;;;;;1.52;1.42;;;12.60;52.10;;;;;;5053164;28;20068;-76
2021/05/06 11:03:35;;;;;;;4.55;2.17;;;12.30;52.00;;;;;;5054497;28;20024;-76
2021/05/06 11:06:01;;;;;;;3.78;2.00;;;12.50;54.40;;;;;;5054611;28;20027;-76
2021/05/06 11:08:28;;;;;;;2.75;1.88;;;12.50;53.70;;;;;;5054026;28;20496;-76
2021/05/06 11:11:00;;;;;;;1.98;1.83;;;12.30;53.10;;;;;;5054251;28;20052;-76
2021/05/06 11:13:26;;;;;;;2.90;2.20;;;12.30;53.50;;;;;;5053952;28;20033;-76
2021/05/06 11:16:13;;;;;;;2.20;1.80;;;12.20;53.30;;;;;;5052957;28;20482;-76
2021/05/06 11:18:43;;;;;;;2.05;1.83;;;12.20;53.70;;;;;;5053855;28;20151;-76
2021/05/06 11:21:10;;;;;;;6.53;3.63;;;12.00;53.00;;;;;;5052667;28;20025;-76
2021/05/06 11:23:36;;;;;;;4.20;2.92;;;12.40;53.80;;;;;;5053968;28;20039;-76
2021/05/06 11:26:05;;;;;;;4.22;2.22;;;12.70;53.40;;;;;;5053985;28;20025;-76
2021/05/06 11:28:30;;;;;;;2.90;2.03;;;12.60;50.40;;;;;;5053642;28;20029;-76
2021/05/06 11:30:57;;;;;;;2.75;1.95;;;12.80;50.20;;;;;;5053781;28;20127;-76
2021/05/06 11:33:24;;;;;;;3.15;1.65;;;12.80;50.40;;;;;;5052251;28;20025;-76
2021/05/06 11:36:12;;;;;;;2.97;1.88;;;12.70;50.00;;;;;;5053657;28;20017;-76
2021/05/06 11:38:38;;;;;;;9.50;2.17;;;12.50;48.90;;;;;;5052400;28;20025;-76
2021/05/06 11:41:13;;;;;;;3.88;2.45;;;12.60;49.40;;;;;;5053421;28;20372;-76
2021/05/06 11:43:41;;;;;;;3.40;1.90;;;12.30;49.50;;;;;;5055891;28;20086;-76
2021/05/06 11:46:15;;;;;;;4.68;1.67;;;12.40;49.50;;;;;;5053652;28;20427;-76
2021/05/06 11:48:44;;;;;;;2.53;1.88;;;12.40;49.00;;;;;;5053565;28;20091;-76
2021/05/06 11:51:11;;;;;;;4.03;2.08;;;12.50;49.50;;;;;;5052126;28;20021;-76
2021/05/06 11:53:37;;;;;;;4.00;2.20;;;12.80;48.80;;;;;;5052581;28;20021;-76
2021/05/06 11:56:21;;;;;;;3.03;1.92;;;13.10;48.30;;;;;;5051455;28;20531;-76
2021/05/06 11:58:50;;;;;;;3.22;2.10;;;12.70;47.10;;;;;;5051894;28;20024;-76
2021/05/06 12:01:23;;;;;;;2.00;1.73;;;12.70;46.70;;;;;;5053341;28;20024;-76
2021/05/06 12:03:50;;;;;;;2.58;1.90;;;12.40;45.90;;;;;;5053115;28;20024;-76
2021/05/06 12:06:26;;;;;;;2.17;1.70;;;12.40;46.20;;;;;;5053086;28;20052;-76
2021/05/06 12:08:52;;;;;;;2.47;1.92;;;12.60;47.70;;;;;;5053317;28;20028;-77
2021/05/06 12:11:18;;;;;;;3.97;1.80;;;12.60;47.00;;;;;;5053227;28;20017;-76
2021/05/06 12:13:44;;;;;;;2.67;1.58;;;12.40;46.70;;;;;;5053020;28;20073;-76
2021/05/06 12:16:11;;;;;;;2.78;1.63;;;12.10;46.80;;;;;;5052893;28;20021;-76
2021/05/06 12:18:37;;;;;;;3.28;1.67;;;11.80;46.90;;;;;;5052833;28;20582;-76
2021/05/06 12:21:06;;;;;;;1.40;1.30;;;11.70;46.80;;;;;;5052734;28;20048;-76
2021/05/06 12:23:33;;;;;;;2.47;1.60;;;11.60;47.60;;;;;;5051596;28;20074;-76
2021/05/06 12:25:59;;;;;;;4.00;2.17;;;11.30;47.80;;;;;;5052703;28;20090;-76
2021/05/06 12:28:25;;;;;;;2.63;2.20;;;10.80;50.10;;;;;;5052525;28;20486;-76
2021/05/06 12:31:00;;;;;;;2.50;2.25;;;10.50;54.80;;;;;;5051536;28;20108;-76
2021/05/06 12:33:33;;;;;;;2.05;1.67;;;10.50;60.30;;;;;;5054787;28;20431;-76
2021/05/06 12:35:59;;;;;;;5.35;2.15;;;10.70;66.70;;;;;;5061171;28;20108;-76
2021/05/06 12:38:26;;;;;;;3.38;2.10;;;11.10;68.30;;;;;;5060861;28;20028;-76
2021/05/06 12:40:53;;;;;;;3.50;1.75;;;11.40;61.30;;;;;;5061239;28;20370;-76
2021/05/06 12:43:28;;;;;;;4.50;2.28;;;11.80;60.00;;;;;;5060995;28;20029;-76
2021/05/06 12:46:10;;;;;;;3.17;1.75;;;12.00;58.40;;;;;;5060725;28;20017;-76
2021/05/06 12:48:41;;;;;;;7.60;3.55;;;12.10;57.00;;;;;;5060655;28;20445;-76
2021/05/06 12:51:07;;;;;;;2.35;1.60;;;12.00;55.00;;;;;;5059731;28;20025;-76
2021/05/06 12:53:34;;;;;;;3.70;2.28;;;12.00;54.20;;;;;;5061749;28;20013;-76
2021/05/06 12:56:00;;;;;;;4.28;2.05;;;12.00;53.40;;;;;;5061987;28;20009;-76
2021/05/06 12:58:28;;;;;;;3.50;1.95;;;12.00;53.40;;;;;;5059947;28;20044;-76
2021/05/06 13:00:58;;;;;;;5.90;2.58;;;12.00;52.90;;;;;;5054199;28;20045;-76
2021/05/06 13:03:31;;;;;;;3.65;1.80;;;12.00;52.10;;;;;;5051912;28;20052;-76
2021/05/06 13:06:04;;;;;;;2.65;1.70;;;12.00;52.20;;;;;;5049748;28;20076;-76
2021/05/06 13:08:43;;;;;;;3.88;1.60;;;12.40;51.40;;;;;;5051930;28;20037;-76
2021/05/06 13:11:11;;;;;;;4.25;2.03;;;12.70;50.60;;;;;;5050923;28;20021;-76
2021/05/06 13:13:38;;;;;;;4.32;1.60;;;12.70;49.10;;;;;;5050469;28;20013;-76
2021/05/06 13:16:05;;;;;;;2.72;1.52;;;12.50;48.70;;;;;;5055005;28;20473;-76
2021/05/06 13:18:31;;;;;;;2.45;1.80;;;12.70;48.30;;;;;;5056932;28;20021;-76
2021/05/06 13:20:57;;;;;;;4.57;1.75;;;13.10;48.90;;;;;;5057935;28;20013;-76
2021/05/06 13:23:30;;;;;;;9.15;3.20;;;13.20;47.40;;;;;;5058672;28;20033;-76
2021/05/06 13:25:58;;;;;;;1.95;1.67;;;13.60;48.00;;;;;;5056238;28;20147;-76
2021/05/06 13:28:33;;;;;;;2.75;1.92;;;13.60;46.60;;;;;;5055336;28;20037;-76
2021/05/06 13:31:14;;;;;;;2.75;2.00;;;13.00;44.80;;;;;;5056603;28;20017;-76
2021/05/06 13:33:40;;;;;;;3.72;2.10;;;12.60;45.40;;;;;;5058060;28;20388;-76
2021/05/06 13:36:10;;;;;;;3.50;1.83;;;12.60;46.90;;;;;;5055154;28;20079;-76
2021/05/06 13:38:59;;;;;;;4.07;1.70;;;12.30;46.70;;;;;;5057625;28;20389;-76
2021/05/06 13:41:28;;;;;;;3.47;2.45;;;12.30;47.10;;;;;;5061049;28;20048;-76
2021/05/06 13:43:55;;;;;;;2.78;1.85;;;12.40;47.70;;;;;;5060965;28;20032;-76
2021/05/06 13:46:22;;;;;;;1.95;1.60;;;12.40;47.50;;;;;;5059556;28;20036;-76
2021/05/06 13:48:48;;;;;;;3.70;2.20;;;12.80;47.80;;;;;;5062241;28;20024;-76
2021/05/06 13:51:15;;;;;;;3.90;1.92;;;13.00;47.30;;;;;;5060969;28;20033;-77
2021/05/06 13:53:43;;;;;;;5.70;1.80;;;13.30;47.70;;;;;;5061116;28;20064;-76
2021/05/06 13:56:10;;;;;;;3.38;1.40;;;13.20;46.50;;;;;;5060212;28;20016;-76
2021/05/06 13:58:37;;;;;;;1.70;1.60;;;12.70;45.40;;;;;;5060007;28;20036;-76
2021/05/06 14:01:05;;;;;;;3.05;1.73;;;12.70;45.30;;;;;;5061654;28;20028;-76
2021/05/06 14:03:31;;;;;;;8.30;1.77;;;12.60;46.30;;;;;;5060020;28;20048;-76
2021/05/06 14:05:56;;;;;;;3.95;1.42;;;12.70;46.90;;;;;;5059704;28;20059;-76
2021/05/06 14:08:22;;;;;;;7.43;1.67;;;12.60;45.30;;;;;;5061420;28;20037;-76
2021/05/06 14:10:48;;;;;;;3.08;1.65;;;12.30;45.10;;;;;;5066836;28;20021;-76
2021/05/06 14:13:16;;;;;;;3.13;1.88;;;12.30;46.00;;;;;;5075114;28;20037;-76
2021/05/06 14:15:42;;;;;;;3.28;1.70;;;12.50;47.10;;;;;;5073883;28;20053;-78
2021/05/06 14:18:08;;;;;;;5.25;2.47;;;12.70;46.80;;;;;;5073697;28;20056;-76
2021/05/06 14:20:34;;;;;;;52.45;23.25;;;12.70;46.70;;;;;;5075106;28;20056;-76
2021/05/06 14:22:59;;;;;;;18.75;10.00;;;12.70;47.30;;;;;;5075047;28;20029;-76
2021/05/06 14:25:25;;;;;;;2.42;1.75;;;12.60;46.10;;;;;;5070672;28;20025;-76
2021/05/06 14:27:51;;;;;;;5.40;3.38;;;12.50;46.20;;;;;;5061550;28;20036;-76
2021/05/06 14:30:17;;;;;;;7.80;4.75;;;12.60;47.80;;;;;;5063003;28;20062;-76
2021/05/06 14:32:43;;;;;;;4.95;2.47;;;12.70;47.50;;;;;;5063092;28;20427;-75
2021/05/06 14:35:09;;;;;;;12.52;6.40;;;12.60;47.10;;;;;;5058589;28;20035;-76
2021/05/06 14:37:35;;;;;;;14.70;7.90;;;12.60;47.10;;;;;;5061604;28;20021;-76
2021/05/06 14:40:01;;;;;;;7.00;3.85;;;12.60;47.20;;;;;;5062733;28;20017;-76
2021/05/06 14:42:26;;;;;;;7.53;4.47;;;12.40;47.40;;;;;;5060383;28;20391;-76
2021/05/06 14:44:52;;;;;;;2.88;2.05;;;12.60;48.10;;;;;;5063633;28;20092;-76
2021/05/06 14:47:18;;;;;;;8.20;2.85;;;12.90;48.40;;;;;;5056349;28;20033;-76
2021/05/06 14:49:44;;;;;;;4.50;2.30;;;13.00;47.90;;;;;;5059249;28;20382;-75
2021/05/06 14:52:09;;;;;;;6.35;4.20;;;13.20;47.40;;;;;;5065590;28;20028;-77
2021/05/06 14:54:35;;;;;;;5.20;2.22;;;13.40;47.40;;;;;;5063198;28;20186;-76
2021/05/06 14:57:00;;;;;;;4.93;2.05;;;13.30;46.90;;;;;;5066598;28;20489;-77
2021/05/06 14:59:26;;;;;;;4.05;2.50;;;13.60;47.20;;;;;;5066741;28;20035;-77
2021/05/06 15:01:53;;;;;;;10.93;5.68;;;13.80;46.60;;;;;;5065058;28;20422;-77
2021/05/06 15:04:19;;;;;;;5.45;4.30;;;13.30;45.10;;;;;;5064289;28;20058;-77
2021/05/06 15:06:44;;;;;;;8.57;5.30;;;13.00;44.90;;;;;;5062198;28;20048;-76
2021/05/06 15:09:10;;;;;;;10.80;5.40;;;12.90;45.00;;;;;;5065256;28;20087;-77
2021/05/06 15:11:36;;;;;;;13.02;5.22;;;12.80;45.00;;;;;;5061210;28;20037;-76
2021/05/06 15:14:02;;;;;;;5.30;2.83;;;12.60;45.00;;;;;;5059702;28;20019;-77
2021/05/06 15:16:27;;;;;;;9.95;5.60;;;12.60;45.90;;;;;;5060348;28;20381;-76
2021/05/06 15:18:53;;;;;;;5.05;2.70;;;12.80;46.40;;;;;;5063380;28;20325;-76
2021/05/06 15:21:19;;;;;;;6.60;2.60;;;12.90;46.10;;;;;;5064673;28;20020;-76
2021/05/06 15:23:44;;;;;;;6.25;4.40;;;12.80;45.50;;;;;;5062642;28;20024;-76
2021/05/06 15:26:10;;;;;;;9.98;4.55;;;12.80;46.00;;;;;;5066386;28;20029;-76
2021/05/06 15:28:36;;;;;;;4.07;2.40;;;12.80;45.90;;;;;;5060250;28;20415;-76
2021/05/06 15:31:02;;;;;;;8.70;4.90;;;12.80;45.70;;;;;;5061905;28;20062;-76
2021/05/06 15:33:28;;;;;;;10.27;7.60;;;12.70;45.10;;;;;;5059114;28;20549;-76
2021/05/06 15:35:53;;;;;;;12.65;7.25;;;12.80;45.00;;;;;;5056331;28;20108;-76
2021/05/06 15:38:20;;;;;;;12.35;7.75;;;12.70;44.70;;;;;;5070101;28;20447;-76
2021/05/06 15:40:50;;;;;;;17.95;9.18;;;12.80;45.00;;;;;;5065891;28;20188;-76
2021/05/06 15:43:16;;;;;;;18.15;9.63;;;12.70;45.10;;;;;;5072990;28;20025;-76
2021/05/06 15:45:42;;;;;;;8.25;5.00;;;12.70;45.70;;;;;;5072680;28;20021;-76
2021/05/06 15:48:17;;;;;;;9.25;5.38;;;12.80;46.20;;;;;;5060690;28;20144;-76
2021/05/06 15:50:43;;;;;;;29.00;16.48;;;12.90;46.40;;;;;;5058862;28;20385;-76
2021/05/06 15:53:09;;;;;;;11.35;6.85;;;13.00;45.80;;;;;;5053754;28;20446;-76
2021/05/06 15:55:36;;;;;;;11.80;6.30;;;13.10;46.80;;;;;;5056918;28;20021;-76
2021/05/06 15:58:03;;;;;;;16.00;8.60;;;13.10;46.10;;;;;;5053586;28;20394;-76
2021/05/06 16:00:31;;;;;;;5.03;3.10;;;13.10;46.60;;;;;;5055658;28;20025;-76
2021/05/06 16:03:01;;;;;;;7.80;4.38;;;13.00;46.90;;;;;;5057651;28;20104;-76
2021/05/06 16:05:28;;;;;;;11.10;5.40;;;12.80;46.40;;;;;;5066560;28;20496;-76
2021/05/06 16:07:55;;;;;;;6.63;4.50;;;12.50;47.10;;;;;;5056305;28;20129;-77
2021/05/06 16:10:22;;;;;;;4.88;3.33;;;12.40;47.30;;;;;;5060092;28;20580;-76